الصفحة الرئيسية
METAR-TAF:

METAR-TAF

مطار :

Lamar Municipal Airport

Lamar, كولورادو, الولايات المتحدة

دائرة عرض: 38-04-21N, خط طول: 102-41-12W, ارتفاع: 1128 متر

مراقبة الطقس الحالي

تاريخ ووقت الإصدار 48 دقيقة قبل الساعة 13:53UTC
ريح 6 عقدة من الغرب/الجنوب الغربي
درجة الحرارة 3°درجة مئوية
الرطوبة 93%
ضغط 1033 hPa
الرؤية: 16.1 كم
غيوم قليلة على ارتفاع 12000 قدم

METAR: KLAA 171353Z AUTO 25006KT 10SM FEW120 03/02 A3049 RMK AO2 SLP326 T00330017

زمن: 08:41 (14:41 UTC)


TAF: مفقودة

أرصاد الطقس والتوقعات من أكثر من 4000 مطار (تقارير الطقس للمطار METAR والتنبؤ بالطقس بالمطارTAF).

المحطات المتاحة هي النقط الصفراء والحمراء على الخريطة.

حرك المؤشر فوق النقطة لمعرفة اسم المحطة.

ثم انقر لمعرفة أرصاد وتوقعات الطقس.

لتغيير الخارطة: اضغط على الأزرار الخضراء مع رمز الصليب الأسود للتكبير. على الزر الأخضر مع شرطة للتصغير، أو على الأسهم الخضراء للخرائط المجاورة.


METAR-TAF: